Terminal Aerodrome Forecast
Issued by NWS Pittsburgh, PA

Current Version | Previous Version | Graphics & Text | Print | Product List | Glossary On
Versions: 1 2 3 4 5 6 7 8 9 10 11 12 13 14 15 16 17 18 19 20 21 22 23 24 25 26 27 28
916
FTUS41 KPBZ 281139
TAFPIT
TAF
KPIT 281139Z 2812/2918 VRB04KT P6SM SCT250
     FM281700 18005KT P6SM BKN200
     FM290400 14004KT P6SM VCSH OVC090
     FM290800 20005KT P6SM VCSH OVC045
     FM291300 23007KT P6SM VCSH OVC020=

USA.gov is the U.S. government's official web portal to all federal, state and local government web resources and services.